Time;durP1;ratioP1;P1;durP2;ratioP2;P2;SDS_P1;SDS_P2;PMS_P1;PMS_P2;Temp;Humidity;BMP_temperature;BMP_pressure;BME280_temperature;BME280_humidity;BME280_pressure;Samples;Min_cycle;Max_cycle;Signal;HPM_P1;HPM_P2
2023/03/17 00:01:50;;;;;;;5.60;2.58;;;;;;;9.75;52.88;99182.53;5031537;28;20092;-77
2023/03/17 00:04:18;;;;;;;5.25;2.55;;;;;;;9.78;52.67;99198.13;5013787;28;20147;-77
2023/03/17 00:06:45;;;;;;;3.88;2.97;;;;;;;9.82;52.67;99190.03;5031371;28;20089;-77
2023/03/17 00:09:13;;;;;;;5.40;2.67;;;;;;;9.81;52.51;99186.56;5031182;28;20184;-77
2023/03/17 00:11:41;;;;;;;3.95;2.80;;;;;;;9.83;52.50;99183.84;5031585;28;20061;-77
2023/03/17 00:14:08;;;;;;;4.90;3.00;;;;;;;9.84;52.56;99177.66;5013463;28;20056;-77
2023/03/17 00:16:41;;;;;;;6.90;2.67;;;;;;;9.83;51.34;99171.53;5030769;28;20464;-76
2023/03/17 00:19:25;;;;;;;3.15;2.42;;;;;;;9.83;51.49;99158.41;5013210;28;20050;-77
2023/03/17 00:21:52;;;;;;;5.57;2.75;;;;;;;9.88;52.50;99152.84;5031231;28;20140;-77
2023/03/17 00:24:18;;;;;;;4.97;2.60;;;;;;;9.91;52.74;99160.56;5030838;28;20425;-77
2023/03/17 00:26:45;;;;;;;4.32;2.67;;;;;;;9.91;52.43;99166.63;5013021;28;20057;-77
2023/03/17 00:29:12;;;;;;;3.58;2.42;;;;;;;9.92;51.89;99185.91;5030960;28;20140;-76
2023/03/17 00:31:39;;;;;;;4.40;2.60;;;;;;;9.92;52.14;99185.91;5030516;28;20088;-77
2023/03/17 00:34:06;;;;;;;5.70;2.90;;;;;;;9.93;52.09;99195.47;5031177;28;20108;-77
2023/03/17 00:36:34;;;;;;;6.07;2.90;;;;;;;9.95;51.93;99182.22;5030346;28;20513;-77
2023/03/17 00:39:01;;;;;;;4.75;2.85;;;;;;;9.95;51.92;99193.59;5013259;28;20580;-77
2023/03/17 00:41:28;;;;;;;4.22;2.75;;;;;;;9.97;52.00;99189.06;5030399;28;20092;-77
2023/03/17 00:43:56;;;;;;;4.63;2.60;;;;;;;9.97;52.07;99170.66;5030684;28;20160;-76
2023/03/17 00:46:27;;;;;;;4.43;2.35;;;;;;;9.99;51.98;99179.28;5029832;28;20549;-77
2023/03/17 00:48:54;;;;;;;3.60;2.83;;;;;;;9.98;51.97;99182.03;5030690;28;20060;-77
2023/03/17 00:51:22;;;;;;;3.90;2.40;;;;;;;9.96;51.58;99182.13;5030279;28;20060;-76
2023/03/17 00:53:48;;;;;;;6.55;2.75;;;;;;;9.97;51.66;99180.31;5030623;28;20049;-78
2023/03/17 00:56:18;;;;;;;3.20;2.40;;;;;;;9.98;51.17;99182.88;5012834;28;20456;-76
2023/03/17 00:58:46;;;;;;;3.72;2.65;;;;;;;9.99;51.73;99179.28;5029901;28;20489;-78
2023/03/17 01:01:13;;;;;;;3.85;3.00;;;;;;;9.99;51.71;99183.72;5030478;28;20549;-77
2023/03/17 01:03:40;;;;;;;4.03;2.80;;;;;;;9.98;51.93;99182.88;5030399;28;20050;-77
2023/03/17 01:06:10;;;;;;;3.58;2.53;;;;;;;9.98;51.26;99192.56;5030784;28;20421;-76
2023/03/17 01:08:39;;;;;;;4.68;3.05;;;;;;;9.98;51.69;99188.13;5030211;28;20085;-78
2023/03/17 01:11:13;;;;;;;5.05;2.38;;;;;;;9.99;51.80;99189.81;5030385;28;20057;-78
2023/03/17 01:13:40;;;;;;;4.43;2.22;;;;;;;10.00;51.79;99196.78;5030609;28;20049;-78
2023/03/17 01:16:11;;;;;;;3.67;2.05;;;;;;;9.99;51.45;99199.50;5029993;28;20089;-78
2023/03/17 01:18:38;;;;;;;4.10;2.58;;;;;;;10.01;51.61;99187.06;5012675;28;20045;-77
2023/03/17 01:21:08;;;;;;;4.13;2.55;;;;;;;9.99;51.10;99202.94;5030505;28;20053;-77
2023/03/17 01:23:34;;;;;;;3.58;2.20;;;;;;;10.01;51.88;99192.34;5030463;28;20148;-78
2023/03/17 01:26:01;;;;;;;2.78;2.17;;;;;;;10.00;51.87;99183.63;5192063;22;21167;-80
2023/03/17 01:28:27;;;;;;;4.63;2.35;;;;;;;10.00;51.95;99182.78;5009560;28;20050;-80
2023/03/17 01:30:54;;;;;;;3.72;2.33;;;;;;;10.00;52.00;99186.25;5027010;28;20049;-80
2023/03/17 01:33:21;;;;;;;3.20;2.25;;;;;;;9.99;51.95;99179.28;5029445;28;20148;-80
2023/03/17 01:35:49;;;;;;;4.43;2.38;;;;;;;9.97;51.60;99170.66;5028701;28;20057;-80
2023/03/17 01:38:16;;;;;;;4.25;2.63;;;;;;;9.97;51.98;99162.78;5029183;28;20053;-80
2023/03/17 01:40:46;;;;;;;4.10;2.47;;;;;;;9.95;52.07;99162.03;5029505;28;20050;-80
2023/03/17 01:43:23;;;;;;;3.60;2.45;;;;;;;9.92;50.95;99167.50;5028306;28;20050;-80
2023/03/17 01:46:19;;;;;;;4.00;2.38;;;;;;;9.89;50.50;99159.78;5029124;28;20053;-80
2023/03/17 01:49:05;;;;;;;2.20;2.00;;;;;;;9.89;50.79;99147.50;5028903;28;20061;-80
2023/03/17 01:51:52;;;;;;;2.80;2.00;;;;;;;9.88;50.96;99144.97;5029191;28;20492;-80
2023/03/17 01:54:27;;;;;;;4.32;2.17;;;;;;;9.90;51.67;99148.31;5029540;28;20062;-80
2023/03/17 01:57:00;;;;;;;3.10;2.40;;;;;;;9.89;51.65;99149.28;5027506;28;20057;-80
2023/03/17 01:59:32;;;;;;;3.20;2.22;;;;;;;9.90;51.50;99148.31;5029599;28;20053;-79
2023/03/17 02:02:05;;;;;;;3.40;2.17;;;;;;;9.88;51.39;99127.38;5029284;28;20427;-79
2023/03/17 02:04:32;;;;;;;3.53;2.03;;;;;;;9.90;51.94;99133.41;5029089;28;20085;-79
2023/03/17 02:07:01;;;;;;;4.35;2.45;;;;;;;9.91;51.83;99126.38;5028594;28;20058;-80
2023/03/17 02:09:28;;;;;;;2.67;2.30;;;;;;;9.93;52.17;99126.25;5028865;28;20127;-80
2023/03/17 02:11:56;;;;;;;2.70;2.03;;;;;;;9.91;51.96;99126.38;5028884;28;20049;-80
2023/03/17 02:14:23;;;;;;;3.15;1.98;;;;;;;9.91;51.99;99115.88;5030744;28;20141;-80
2023/03/17 02:16:49;;;;;;;8.80;2.60;;;;;;;9.90;51.83;99122.91;5032205;28;20056;-80
2023/03/17 02:19:16;;;;;;;4.63;2.20;;;;;;;9.89;52.05;99125.63;5032125;28;20108;-80
2023/03/17 02:21:48;;;;;;;3.15;2.33;;;;;;;9.89;51.81;99123.00;5032591;28;20134;-80
2023/03/17 02:24:32;;;;;;;6.32;2.17;;;;;;;9.85;50.51;99124.97;5032630;28;20088;-80
2023/03/17 02:27:05;;;;;;;3.72;2.30;;;;;;;9.87;51.25;99115.19;5031566;28;20126;-80
2023/03/17 02:29:34;;;;;;;5.05;2.58;;;;;;;9.86;51.69;99110.03;5014541;28;20061;-80
2023/03/17 02:32:01;;;;;;;3.47;2.00;;;;;;;9.86;52.26;99095.13;5032298;28;20060;-80
2023/03/17 02:34:27;;;;;;;4.15;2.75;;;;;;;9.86;52.14;99097.75;5032083;28;20142;-80
2023/03/17 02:36:54;;;;;;;3.80;2.20;;;;;;;9.84;51.96;99109.31;5031482;28;20112;-80
2023/03/17 02:39:20;;;;;;;4.18;2.20;;;;;;;9.83;51.43;99118.13;5031996;28;20053;-80
2023/03/17 02:41:47;;;;;;;4.30;2.08;;;;;;;9.83;51.71;99118.97;5014055;28;20535;-80
2023/03/17 02:44:13;;;;;;;5.95;2.38;;;;;;;9.84;51.77;99111.94;5032460;28;20135;-80
2023/03/17 02:46:40;;;;;;;5.60;2.38;;;;;;;9.84;51.93;99117.19;5031085;28;20053;-80
2023/03/17 02:49:07;;;;;;;3.20;2.30;;;;;;;9.84;51.82;99112.78;5031789;28;20107;-79
2023/03/17 02:51:33;;;;;;;3.55;2.25;;;;;;;9.84;51.76;99115.41;5031765;28;20080;-80
2023/03/17 02:54:00;;;;;;;3.63;2.10;;;;;;;9.83;51.53;99110.25;5031454;28;20058;-80
2023/03/17 02:56:27;;;;;;;3.08;2.20;;;;;;;9.85;51.85;99111.84;5031333;28;20111;-80
2023/03/17 02:58:53;;;;;;;3.50;2.40;;;;;;;9.86;51.92;99110.88;5013472;28;20103;-80
2023/03/17 03:01:20;;;;;;;3.75;2.38;;;;;;;9.87;51.89;99109.94;5031692;28;20511;-80
2023/03/17 03:03:46;;;;;;;3.83;2.92;;;;;;;9.89;51.66;99104.59;5031568;28;20057;-80
2023/03/17 03:06:13;;;;;;;3.95;2.10;;;;;;;9.90;51.80;99111.53;5031037;28;20111;-80
2023/03/17 03:08:40;;;;;;;3.40;2.38;;;;;;;9.89;51.51;99108.06;5030586;28;20061;-80
2023/03/17 03:11:06;;;;;;;4.07;2.50;;;;;;;9.89;51.74;99104.59;5031552;28;20104;-80
2023/03/17 03:13:32;;;;;;;4.57;2.25;;;;;;;9.89;51.62;99099.34;5031227;28;20057;-80
2023/03/17 03:15:59;;;;;;;5.25;2.70;;;;;;;9.89;51.60;99094.06;5030836;28;20111;-80
2023/03/17 03:18:26;;;;;;;3.95;2.45;;;;;;;9.90;51.64;99106.25;5030821;28;20065;-80
2023/03/17 03:20:52;;;;;;;2.80;2.10;;;;;;;9.90;51.57;99103.63;5031051;28;20104;-80
2023/03/17 03:23:18;;;;;;;4.05;2.30;;;;;;;9.90;51.57;99114.16;5031148;28;20108;-80
2023/03/17 03:25:45;;;;;;;4.57;2.20;;;;;;;9.92;51.81;99101.78;5011707;28;20142;-80
2023/03/17 03:28:12;;;;;;;2.42;2.05;;;;;;;9.94;51.69;99113.00;5031138;28;21201;-80
2023/03/17 03:30:39;;;;;;;3.05;2.28;;;;;;;9.96;51.82;99107.66;5030834;28;20081;-80
2023/03/17 03:33:06;;;;;;;4.35;2.53;;;;;;;9.96;51.25;99111.16;5031294;28;20065;-80
2023/03/17 03:35:33;;;;;;;2.72;2.13;;;;;;;9.97;51.39;99104.09;5030259;28;20053;-80
2023/03/17 03:38:00;;;;;;;6.35;2.42;;;;;;;9.96;51.45;99105.88;5031041;28;20067;-80
2023/03/17 03:40:27;;;;;;;3.53;2.40;;;;;;;9.96;51.69;99099.78;5031193;28;20057;-79
2023/03/17 03:42:53;;;;;;;4.53;2.60;;;;;;;9.97;51.33;99097.06;5031096;28;20076;-80
2023/03/17 03:45:20;;;;;;;4.00;2.25;;;;;;;9.95;51.46;99093.69;5012992;28;20447;-80
2023/03/17 03:47:46;;;;;;;3.53;2.50;;;;;;;9.97;51.37;99090.94;5030406;28;20091;-79
2023/03/17 03:50:13;;;;;;;6.88;2.47;;;;;;;9.98;51.58;99097.91;5030612;28;20143;-80
2023/03/17 03:52:39;;;;;;;3.78;2.53;;;;;;;9.99;51.64;99104.84;5030994;28;20064;-79
2023/03/17 03:55:07;;;;;;;5.07;2.75;;;;;;;10.00;51.39;99101.25;5030473;28;20057;-80
2023/03/17 03:57:33;;;;;;;2.60;2.20;;;;;;;10.02;51.54;99102.03;5030423;28;20127;-80
2023/03/17 04:00:00;;;;;;;5.47;2.60;;;;;;;10.03;51.63;99101.06;5030828;28;20049;-79
2023/03/17 04:02:26;;;;;;;3.63;2.20;;;;;;;10.04;51.29;99097.50;5030903;28;20455;-80
2023/03/17 04:04:53;;;;;;;4.15;2.22;;;;;;;10.04;51.44;99103.59;5029679;28;20053;-80
2023/03/17 04:07:20;;;;;;;4.10;2.35;;;;;;;10.08;51.55;99100.75;5030190;28;20137;-80
2023/03/17 04:09:48;;;;;;;4.50;2.30;;;;;;;10.10;51.42;99102.34;5030415;28;20065;-80
2023/03/17 04:12:16;;;;;;;3.17;2.17;;;;;;;10.11;51.32;99096.16;5030451;28;20053;-80
2023/03/17 04:14:43;;;;;;;4.22;2.15;;;;;;;10.13;51.27;99086.34;5029975;28;20062;-80
2023/03/17 04:17:10;;;;;;;5.07;2.67;;;;;;;10.15;51.24;99073.13;5030055;28;20088;-80
2023/03/17 04:19:37;;;;;;;3.38;2.50;;;;;;;10.15;50.99;99075.75;5030230;28;20122;-80
2023/03/17 04:22:06;;;;;;;4.80;2.30;;;;;;;10.17;51.20;99081.75;5030624;28;20061;-80
2023/03/17 04:24:33;;;;;;;4.28;2.42;;;;;;;10.19;51.44;99071.09;5030028;28;20566;-80
2023/03/17 04:27:01;;;;;;;5.68;2.50;;;;;;;10.17;51.03;99079.13;5029238;28;20080;-79
2023/03/17 04:29:30;;;;;;;6.03;2.33;;;;;;;10.16;51.26;99080.91;5030129;28;20064;-79
2023/03/17 04:31:57;;;;;;;6.60;2.65;;;;;;;10.19;51.23;99086.88;5029646;28;20045;-80
2023/03/17 04:34:23;;;;;;;5.78;2.60;;;;;;;10.20;51.18;99081.53;5030049;28;20132;-80
2023/03/17 04:36:50;;;;;;;4.00;2.38;;;;;;;10.21;50.95;99083.22;5011376;28;20061;-79
2023/03/17 04:39:17;;;;;;;4.25;2.30;;;;;;;10.24;50.96;99090.09;5030182;28;20053;-80
2023/03/17 04:41:43;;;;;;;3.97;2.40;;;;;;;10.25;50.96;99082.06;5029739;28;20046;-80
2023/03/17 04:44:10;;;;;;;6.00;2.95;;;;;;;10.27;50.84;99081.97;5029991;28;20061;-80
2023/03/17 04:46:37;;;;;;;5.20;2.58;;;;;;;10.26;50.91;99070.63;5028683;28;20061;-80
2023/03/17 04:49:03;;;;;;;3.08;2.22;;;;;;;10.28;50.74;99071.34;5029990;28;20072;-80
2023/03/17 04:51:30;;;;;;;3.42;2.50;;;;;;;10.27;50.85;99064.41;5029762;28;20168;-80
2023/03/17 04:53:56;;;;;;;3.50;2.28;;;;;;;10.29;50.81;99062.50;5029609;28;20107;-80
2023/03/17 04:56:22;;;;;;;3.92;2.30;;;;;;;10.29;50.88;99059.06;5029059;28;20504;-80
2023/03/17 04:58:49;;;;;;;4.70;2.40;;;;;;;10.27;50.71;99064.41;5029042;28;20061;-80
2023/03/17 05:01:16;;;;;;;5.35;2.03;;;;;;;10.27;50.72;99056.50;5029532;28;20058;-80
2023/03/17 05:03:42;;;;;;;2.60;2.20;;;;;;;10.29;50.77;99059.06;5029381;28;20107;-80
2023/03/17 05:06:09;;;;;;;3.17;2.25;;;;;;;10.29;50.84;99062.50;5028758;28;20655;-80
2023/03/17 05:08:35;;;;;;;4.03;2.47;;;;;;;10.30;50.91;99051.06;5028770;28;20053;-80
2023/03/17 05:11:01;;;;;;;3.58;2.15;;;;;;;10.29;50.80;99059.88;5029338;28;20157;-80
2023/03/17 05:13:28;;;;;;;3.90;2.30;;;;;;;10.29;50.68;99059.06;5029458;28;20065;-80
2023/03/17 05:15:55;;;;;;;3.92;2.45;;;;;;;10.28;50.69;99047.69;5028924;28;20057;-80
2023/03/17 05:18:24;;;;;;;4.65;2.20;;;;;;;10.29;50.45;99051.16;5029373;28;20057;-80
2023/03/17 05:20:51;;;;;;;3.13;2.28;;;;;;;10.28;50.72;99052.94;5028950;28;20080;-80
2023/03/17 05:23:17;;;;;;;4.60;2.30;;;;;;;10.27;50.51;99048.63;5029622;28;20064;-80
2023/03/17 05:25:44;;;;;;;3.25;2.35;;;;;;;10.26;50.66;99054.84;5028368;28;20079;-80
2023/03/17 05:28:11;;;;;;;3.22;2.30;;;;;;;10.25;50.36;99047.88;5028746;28;20581;-80
2023/03/17 05:30:37;;;;;;;4.70;2.50;;;;;;;10.22;50.38;99042.84;5028854;28;20061;-80
2023/03/17 05:33:04;;;;;;;3.60;2.38;;;;;;;10.22;50.46;99058.63;5011913;28;20137;-80
2023/03/17 05:35:31;;;;;;;5.85;2.25;;;;;;;10.21;50.43;99062.16;5028615;28;20053;-80
2023/03/17 05:37:57;;;;;;;3.20;2.55;;;;;;;10.20;50.02;99064.94;5028814;28;20423;-79
2023/03/17 05:40:24;;;;;;;4.03;2.33;;;;;;;10.19;50.19;99076.38;5029195;28;20111;-80
2023/03/17 05:42:50;;;;;;;3.88;2.38;;;;;;;10.17;49.76;99060.72;5028716;28;20554;-80
2023/03/17 05:45:17;;;;;;;6.03;2.80;;;;;;;10.18;50.17;99065.03;5028677;28;20531;-80
2023/03/17 05:47:44;;;;;;;4.05;2.35;;;;;;;10.19;49.89;99053.56;5028762;28;20068;-80
2023/03/17 05:50:11;;;;;;;3.30;2.55;;;;;;;10.18;50.06;99051.88;5032798;28;20123;-80
2023/03/17 05:52:38;;;;;;;3.97;2.28;;;;;;;10.17;49.99;99053.66;5014919;28;20393;-80
2023/03/17 05:55:05;;;;;;;3.92;2.30;;;;;;;10.18;50.27;99057.13;5032406;28;20060;-80
2023/03/17 05:57:31;;;;;;;4.22;2.22;;;;;;;10.14;49.90;99064.38;5032475;28;20679;-80
2023/03/17 05:59:57;;;;;;;5.93;2.40;;;;;;;10.15;50.07;99076.59;5033089;28;20058;-80
2023/03/17 06:02:24;;;;;;;6.30;2.60;;;;;;;10.13;50.17;99073.22;5032751;28;20072;-80
2023/03/17 06:04:51;;;;;;;3.80;2.45;;;;;;;10.12;49.91;99065.41;5032243;28;20057;-80
2023/03/17 06:07:17;;;;;;;2.80;2.35;;;;;;;10.12;50.00;99068.03;5014930;28;20467;-80
2023/03/17 06:09:43;;;;;;;5.68;2.92;;;;;;;10.12;49.91;99073.31;5032567;28;20054;-80
2023/03/17 06:12:10;;;;;;;4.80;2.42;;;;;;;10.12;49.81;99073.31;5032724;28;20053;-79
2023/03/17 06:14:36;;;;;;;3.25;2.72;;;;;;;10.13;50.09;99065.31;5031947;28;20064;-80
2023/03/17 06:17:03;;;;;;;4.13;2.58;;;;;;;10.12;49.86;99063.66;5031988;28;20135;-80
2023/03/17 06:19:29;;;;;;;6.88;2.40;;;;;;;10.13;49.91;99060.06;5032263;28;20408;-80
2023/03/17 06:21:59;;;;;;;4.00;2.53;;;;;;;10.12;49.92;99066.28;5031826;28;20057;-80
2023/03/17 06:24:25;;;;;;;4.25;2.80;;;;;;;10.12;49.91;99060.16;5031758;28;20065;-81
2023/03/17 06:26:52;;;;;;;4.75;2.30;;;;;;;10.12;49.87;99062.78;5031287;28;20069;-81
2023/03/17 06:29:18;;;;;;;3.95;2.55;;;;;;;10.11;49.99;99063.75;5032014;28;20115;-81
2023/03/17 06:31:50;;;;;;;4.55;2.60;;;;;;;10.11;50.28;99058.47;5029859;28;20053;-81
2023/03/17 06:34:17;;;;;;;3.50;2.20;;;;;;;10.10;50.10;99067.31;5012589;28;20057;-81
2023/03/17 06:36:44;;;;;;;4.65;2.65;;;;;;;10.10;50.12;99072.59;5029429;28;20065;-81
2023/03/17 06:39:11;;;;;;;4.57;2.90;;;;;;;10.10;49.79;99075.22;5030327;28;20061;-81
2023/03/17 06:41:38;;;;;;;6.72;2.70;;;;;;;10.11;50.18;99083.00;5030126;28;20127;-81
2023/03/17 06:44:05;;;;;;;3.30;2.53;;;;;;;10.12;49.91;99073.31;5030576;28;20057;-81
2023/03/17 06:46:31;;;;;;;5.43;2.67;;;;;;;10.13;50.26;99067.13;5030259;28;20404;-81
2023/03/17 06:48:58;;;;;;;4.28;2.58;;;;;;;10.14;50.13;99072.25;5031637;28;20068;-81
2023/03/17 06:51:25;;;;;;;3.85;2.42;;;;;;;10.17;50.02;99079.94;5031419;28;20053;-81
2023/03/17 06:53:51;;;;;;;3.78;2.55;;;;;;;10.19;50.17;99074.59;5031336;28;20053;-81
2023/03/17 06:56:18;;;;;;;3.55;2.55;;;;;;;10.23;50.27;99078.72;5031203;28;20061;-81
2023/03/17 06:58:55;;;;;;;4.50;2.70;;;;;;;10.24;50.16;99069.88;5031123;28;20107;-81
2023/03/17 07:01:22;;;;;;;10.13;2.78;;;;;;;10.29;50.06;99069.56;5031519;28;20052;-81
2023/03/17 07:03:48;;;;;;;3.80;2.53;;;;;;;10.34;50.25;99069.25;5013369;28;20463;-81
2023/03/17 07:06:15;;;;;;;3.03;2.50;;;;;;;10.37;50.39;99064.63;5030470;28;20053;-81
2023/03/17 07:08:41;;;;;;;3.75;2.70;;;;;;;10.41;50.19;99054.75;5013137;28;20962;-81
2023/03/17 07:11:08;;;;;;;4.45;2.55;;;;;;;10.46;50.35;99060.56;5030690;28;20050;-81
2023/03/17 07:13:37;;;;;;;4.00;2.40;;;;;;;10.52;50.45;99059.31;5012977;28;20053;-81
2023/03/17 07:16:04;;;;;;;4.38;2.45;;;;;;;10.55;50.36;99057.28;5030104;28;20089;-81
2023/03/17 07:18:33;;;;;;;2.97;2.53;;;;;;;10.60;50.17;99062.25;5030380;28;20072;-81
2023/03/17 07:21:01;;;;;;;3.97;2.45;;;;;;;10.65;50.20;99056.69;5030693;28;20057;-81
2023/03/17 07:23:29;;;;;;;4.40;2.80;;;;;;;10.69;50.24;99064.25;5030704;28;20056;-81
2023/03/17 07:28:47;;;;;;;2.70;2.10;;;;;;;10.79;50.34;99059.19;4938165;23;20143;-78
2023/03/17 07:31:14;;;;;;;3.20;2.40;;;;;;;10.84;50.03;99065.94;4975037;28;20141;-78
2023/03/17 07:33:41;;;;;;;4.10;2.38;;;;;;;10.88;50.21;99059.50;4992447;28;20050;-77
2023/03/17 07:36:07;;;;;;;2.92;2.30;;;;;;;10.91;50.05;99064.53;4992135;28;20062;-77
2023/03/17 07:38:35;;;;;;;3.72;2.42;;;;;;;10.96;49.96;99067.72;4992758;28;20056;-78
2023/03/17 07:41:03;;;;;;;3.92;2.45;;;;;;;11.00;50.20;99077.09;4992351;28;20132;-77
2023/03/17 07:43:30;;;;;;;4.05;2.60;;;;;;;11.05;50.26;99074.13;4992551;28;20061;-78
2023/03/17 07:45:57;;;;;;;4.43;2.75;;;;;;;11.09;50.18;99075.59;4992535;28;20499;-77
2023/03/17 07:48:24;;;;;;;6.35;2.58;;;;;;;11.15;50.17;99080.44;4991539;28;20085;-77
2023/03/17 07:50:51;;;;;;;3.55;2.75;;;;;;;11.19;50.06;99079.28;4991618;28;20163;-77
2023/03/17 07:53:18;;;;;;;3.10;2.33;;;;;;;11.25;50.19;99066.63;4991539;28;20070;-78
2023/03/17 07:55:44;;;;;;;4.10;2.28;;;;;;;11.30;50.13;99072.41;4992249;28;20120;-78
2023/03/17 07:58:11;;;;;;;3.72;2.40;;;;;;;11.35;50.26;99067.63;4992165;28;20414;-79
2023/03/17 08:00:41;;;;;;;4.38;3.00;;;;;;;11.41;50.24;99069.84;4992564;28;20058;-76
2023/03/17 08:03:08;;;;;;;4.20;3.03;;;;;;;11.46;49.99;99058.97;4991659;28;20057;-77
2023/03/17 08:05:36;;;;;;;5.20;2.78;;;;;;;11.52;50.17;99060.31;4992374;28;20814;-76
2023/03/17 08:08:05;;;;;;;3.90;2.70;;;;;;;11.56;49.97;99067.88;4991908;28;20058;-76
2023/03/17 08:10:32;;;;;;;3.67;2.42;;;;;;;11.61;50.15;99064.91;4991933;28;20064;-76
2023/03/17 08:12:59;;;;;;;3.97;2.85;;;;;;;11.66;49.98;99065.41;4982939;28;20046;-78
2023/03/17 08:15:26;;;;;;;4.75;3.00;;;;;;;11.71;50.01;99058.00;4981746;28;20047;-78
2023/03/17 08:17:53;;;;;;;4.88;2.58;;;;;;;11.75;50.26;99056.00;4980848;28;20065;-75
2023/03/17 08:20:20;;;;;;;4.40;2.35;;;;;;;11.81;49.79;99066.09;4982846;28;20059;-76
2023/03/17 08:22:47;;;;;;;4.75;2.90;;;;;;;11.86;49.90;99056.03;4981971;28;20070;-78
2023/03/17 08:25:13;;;;;;;3.90;2.83;;;;;;;11.90;49.34;99056.69;4991198;28;20468;-76
2023/03/17 08:27:41;;;;;;;5.43;2.50;;;;;;;11.95;49.79;99049.25;4991884;28;20057;-76
2023/03/17 08:30:08;;;;;;;4.22;2.60;;;;;;;12.00;49.71;99046.25;4991311;28;20050;-75
2023/03/17 08:32:35;;;;;;;3.75;2.38;;;;;;;12.06;49.79;99042.34;4974577;28;20046;-75
2023/03/17 08:35:04;;;;;;;2.80;2.42;;;;;;;12.11;49.63;99048.97;4991228;28;20312;-76
2023/03/17 08:37:31;;;;;;;4.30;2.90;;;;;;;12.18;49.23;99032.72;4991811;28;20411;-76
2023/03/17 08:39:57;;;;;;;7.13;2.92;;;;;;;12.23;49.14;99036.66;4991809;28;20085;-78
2023/03/17 08:42:24;;;;;;;4.30;2.80;;;;;;;12.28;49.10;99038.97;4991242;28;20513;-76
2023/03/17 08:44:51;;;;;;;4.53;2.50;;;;;;;12.33;49.37;99030.66;4991240;28;20084;-76
2023/03/17 08:47:17;;;;;;;3.83;2.80;;;;;;;12.37;48.94;99040.91;4991207;28;20086;-76
2023/03/17 08:49:44;;;;;;;5.43;2.75;;;;;;;12.42;49.18;99035.28;4991667;28;20058;-75
2023/03/17 08:52:11;;;;;;;6.45;3.20;;;;;;;12.49;49.30;99033.00;4991255;28;20138;-76
2023/03/17 08:54:37;;;;;;;3.38;2.55;;;;;;;12.55;49.47;99021.09;4991247;28;20050;-75
2023/03/17 08:57:04;;;;;;;5.32;3.03;;;;;;;12.61;49.45;99021.50;4990760;28;20180;-75
2023/03/17 08:59:30;;;;;;;4.85;3.10;;;;;;;12.68;49.43;99018.38;4991274;28;20141;-76
2023/03/17 09:01:57;;;;;;;3.78;2.83;;;;;;;12.73;49.20;99030.25;4962223;28;20154;-75
2023/03/17 09:04:24;;;;;;;4.40;3.20;;;;;;;12.80;49.15;99040.34;4975782;28;20055;-76
2023/03/17 09:06:53;;;;;;;5.72;2.85;;;;;;;12.82;48.39;99049.81;4971709;28;20051;-76
2023/03/17 09:09:29;;;;;;;6.70;3.25;;;;;;;12.86;48.04;99043.34;4971621;28;20773;-76
2023/03/17 09:11:56;;;;;;;5.32;3.00;;;;;;;12.90;48.75;99039.50;4971937;28;20058;-76
2023/03/17 09:14:23;;;;;;;6.13;2.90;;;;;;;12.92;48.39;99047.31;4971527;28;20066;-76
2023/03/17 09:16:51;;;;;;;5.47;2.97;;;;;;;12.95;48.85;99044.44;4971639;28;20059;-76
2023/03/17 09:19:17;;;;;;;6.88;3.38;;;;;;;12.99;48.51;99050.31;4971279;28;20109;-76
2023/03/17 09:21:45;;;;;;;3.90;3.10;;;;;;;13.04;48.23;99042.84;4971738;28;20055;-76
2023/03/17 09:24:12;;;;;;;4.80;3.30;;;;;;;13.06;48.05;99046.22;4974921;28;20086;-76
2023/03/17 09:26:39;;;;;;;7.03;3.22;;;;;;;13.11;47.75;99051.97;4975314;28;20393;-76
2023/03/17 09:29:06;;;;;;;5.88;3.00;;;;;;;13.15;48.26;99058.69;4958272;28;20053;-76
2023/03/17 09:31:35;;;;;;;4.57;2.95;;;;;;;13.21;48.52;99051.25;4958206;28;20107;-75
2023/03/17 09:34:05;;;;;;;4.47;3.13;;;;;;;13.24;46.99;99062.41;4975394;28;20059;-78
2023/03/17 09:36:32;;;;;;;6.95;3.63;;;;;;;13.31;47.72;99054.00;4974743;28;20063;-77
2023/03/17 09:39:00;;;;;;;6.00;3.30;;;;;;;13.36;48.00;99060.59;4975318;28;20117;-78
2023/03/17 09:41:33;;;;;;;4.63;3.20;;;;;;;13.41;47.56;99052.28;4975114;28;20154;-78
2023/03/17 09:44:18;;;;;;;7.45;3.13;;;;;;;13.47;46.41;99053.59;4958166;28;20094;-75
2023/03/17 09:47:14;;;;;;;5.68;3.28;;;;;;;13.57;47.04;99036.06;4974474;28;20133;-75
2023/03/17 09:49:47;;;;;;;4.90;3.08;;;;;;;13.70;47.64;99041.19;4969688;28;20055;-75
2023/03/17 09:52:27;;;;;;;;;;;;;;;13.82;47.36;99057.84;4975253;28;20127;-76
2023/03/17 09:54:54;;;;;;;11.55;3.58;;;;;;;14.00;49.38;99059.94;4974878;28;19929;-76
2023/03/17 09:57:25;;;;;;;6.57;3.25;;;;;;;14.11;49.43;99059.91;4974752;28;20050;-75
2023/03/17 10:00:00;;;;;;;5.45;3.60;;;;;;;14.19;45.38;99051.31;4974883;28;20149;-75
2023/03/17 10:02:38;;;;;;;4.07;3.25;;;;;;;14.33;48.06;99044.88;4974793;28;20142;-76
2023/03/17 10:05:26;;;;;;;3.83;2.92;;;;;;;14.42;46.74;99048.53;4974723;28;20061;-75
2023/03/17 10:08:44;;;;;;;4.65;2.78;;;;;;;14.57;47.28;99051.69;4974261;28;20811;-75
2023/03/17 10:11:30;;;;;;;5.78;3.03;;;;;;;14.77;49.24;99043.91;4918317;28;20145;-75
2023/03/17 10:13:59;;;;;;;4.82;3.00;;;;;;;14.93;49.15;99048.69;4992897;28;20613;-75
2023/03/17 10:16:53;;;;;;;4.65;3.20;;;;;;;15.06;47.73;99044.00;4985379;28;20054;-75
2023/03/17 10:19:30;;;;;;;3.47;2.78;;;;;;;15.25;47.74;99037.06;4993590;28;20051;-75
2023/03/17 10:22:03;;;;;;;4.28;3.53;;;;;;;15.41;48.20;99039.22;4976337;28;20050;-76
2023/03/17 10:24:31;;;;;;;5.90;3.33;;;;;;;15.58;48.30;99044.81;4988798;28;20410;-75
2023/03/17 10:27:03;;;;;;;4.28;3.03;;;;;;;15.73;48.21;99035.47;4973258;28;20055;-75
2023/03/17 10:29:31;;;;;;;4.78;3.28;;;;;;;15.86;48.06;99039.69;4957118;28;20086;-75
2023/03/17 10:31:57;;;;;;;4.53;3.20;;;;;;;15.97;48.35;99042.25;4974422;28;20054;-75
2023/03/17 10:34:31;;;;;;;4.13;3.20;;;;;;;16.07;47.12;99046.69;4973478;28;20106;-75
2023/03/17 10:37:05;;;;;;;5.97;3.50;;;;;;;16.14;45.56;99051.28;4973799;28;20101;-75
2023/03/17 10:39:43;;;;;;;5.30;3.20;;;;;;;16.23;45.67;99056.75;4974125;28;20492;-75
2023/03/17 10:42:18;;;;;;;7.30;3.10;;;;;;;16.31;46.55;99059.53;4974509;28;20065;-78
2023/03/17 10:44:47;;;;;;;5.82;3.10;;;;;;;16.36;45.77;99040.50;4973920;28;20051;-77
2023/03/17 10:47:38;;;;;;;3.58;2.85;;;;;;;16.36;43.41;99040.50;4973817;28;20051;-77
2023/03/17 10:50:14;;;;;;;10.02;3.05;;;;;;;16.44;43.83;99032.66;4973508;28;20110;-75
2023/03/17 10:52:41;;;;;;;5.72;3.00;;;;;;;16.53;46.84;99036.28;4974208;28;20055;-75
2023/03/17 10:55:14;;;;;;;5.53;3.00;;;;;;;16.56;45.13;99029.84;4973492;28;20086;-77
2023/03/17 10:58:08;;;;;;;4.10;3.10;;;;;;;16.62;43.97;99029.25;4956663;28;20059;-75
2023/03/17 11:00:37;;;;;;;7.13;3.10;;;;;;;16.75;46.27;99036.91;4962627;28;20393;-77
2023/03/17 11:03:17;;;;;;;6.50;3.05;;;;;;;16.85;44.96;99035.03;4974001;28;20069;-77
2023/03/17 11:05:55;;;;;;;5.30;3.50;;;;;;;16.98;44.03;99040.03;4973288;28;20078;-77
2023/03/17 11:08:22;;;;;;;5.93;3.47;;;;;;;17.15;46.12;99037.59;4956310;28;20137;-77
2023/03/17 11:10:55;;;;;;;6.07;2.88;;;;;;;17.24;44.48;99028.75;4973569;28;20090;-77
2023/03/17 11:13:28;;;;;;;6.10;2.90;;;;;;;17.39;44.30;99028.22;4956519;28;20059;-77
2023/03/17 11:16:00;;;;;;;7.20;3.03;;;;;;;17.52;42.55;99031.34;4973061;28;20054;-77
2023/03/17 11:18:33;;;;;;;5.18;3.00;;;;;;;17.69;43.52;99034.19;4973272;28;20066;-77
2023/03/17 11:21:14;;;;;;;6.18;3.65;;;;;;;17.83;43.44;99028.31;4973177;28;20137;-77
2023/03/17 11:23:47;;;;;;;3.85;2.85;;;;;;;18.04;45.68;99032.50;4973671;28;20055;-77
2023/03/17 11:26:17;;;;;;;4.75;2.65;;;;;;;18.24;45.69;99029.66;4972953;28;20051;-77
2023/03/17 11:29:06;;;;;;;5.38;3.40;;;;;;;18.45;42.33;99029.31;4973129;28;20055;-77
2023/03/17 11:31:41;;;;;;;4.97;3.35;;;;;;;18.78;45.24;99026.00;4973213;28;20053;-77
2023/03/17 11:34:18;;;;;;;6.15;2.78;;;;;;;19.05;42.60;99036.59;4956246;28;20082;-77
2023/03/17 11:37:20;;;;;;;5.05;3.10;;;;;;;19.38;42.19;99042.09;4972362;28;20456;-78
2023/03/17 11:39:58;;;;;;;5.00;2.90;;;;;;;19.76;44.91;99029.16;4973186;28;20522;-77
2023/03/17 11:42:36;;;;;;;7.85;2.58;;;;;;;20.08;42.42;99026.69;4972891;28;20055;-75
2023/03/17 11:45:22;;;;;;;5.43;3.00;;;;;;;20.36;39.66;99039.69;4972685;28;20050;-75
2023/03/17 11:48:13;;;;;;;4.63;2.78;;;;;;;20.59;39.65;99022.94;4971509;28;20058;-75
2023/03/17 11:50:48;;;;;;;5.35;2.65;;;;;;;20.82;43.28;99017.69;4972740;28;20185;-75